Latest Weather Observations for Coonamble

IDN60801

Issued at 5:05 pm EST Wednesday 16 April 2014 (issued every 30 minutes, with the page automatically refreshed every 10 minutes)

About weather observations | Map of weather stations | Latest weather observations for NSW | Other Formats
Station Details ID: 051161 Name: COONAMBLE AIRPORT AWS Lat: -30.98 Lon: 148.38 Height: 181.3 m
Data from the previous 72 hours. | See also: Recent months at Coonamble
Date/Time
EST
Temp
°C
App
Temp
°C
Dew
Point
Rel
Hum
%
Delta-T
°C
Wind Press
QNH
hPa
Press
MSL
hPa
Rain
since 9 am
mm
Dir
 
Spd
km/h
Gust
km/h
Spd
kts
Gust
kts
16/05:00pm 21.8 18.9 8.3 42 7.1 SSW 13 17 7 9 1016.2 1015.7 0.0
16/04:30pm 23.0 19.3 7.9 38 8.0 S 17 20 9 11 1015.9 - 0.0
16/04:00pm 23.9 20.6 7.9 36 8.5 SW 15 20 8 11 1015.8 1015.3 0.0
16/03:30pm 24.5 21.8 5.8 30 9.6 WSW 9 15 5 8 1015.9 - 0.0
16/03:00pm 24.2 21.2 7.8 35 8.7 WSW 13 19 7 10 1016.1 1015.6 0.0
16/02:30pm 23.7 21.7 8.5 38 8.2 SSW 9 13 5 7 1016.2 - 0.0
16/02:00pm 23.8 21.0 8.6 38 8.2 S 13 15 7 8 1016.3 1015.8 0.0
16/01:30pm 22.6 21.1 9.0 42 7.3 SSW 7 11 4 6 1016.5 - 0.0
16/01:00pm 24.0 22.5 9.2 39 8.1 W 7 13 4 7 1016.7 1016.2 0.0
16/12:30pm 23.2 20.8 8.5 39 7.9 S 11 15 6 8 1017.2 - 0.0
16/12:00pm 22.9 21.7 9.7 43 7.2 S 6 15 3 8 1017.6 1017.1 0.0
16/11:30am 22.3 20.6 9.8 45 6.8 SSW 9 15 5 8 1018.1 - 0.0
16/11:00am 22.5 21.4 11.9 51 6.0 E 9 17 5 9 1018.5 1018.0 0.0
16/10:30am 21.9 20.3 11.6 52 5.8 ENE 11 28 6 15 1018.5 - 0.0
16/10:00am 20.7 20.3 12.4 59 4.7 S 6 11 3 6 1018.8 1018.3 0.0
16/09:30am 19.9 19.9 11.1 57 4.9 ESE 2 7 1 4 1018.9 - 0.0
16/09:00am 18.4 17.9 12.2 67 3.5 NE 6 7 3 4 1019.1 1018.6 0.0
16/08:30am 18.0 18.2 12.9 72 2.9 ENE 4 6 2 3 1018.9 - 0.0
16/08:00am 14.6 15.9 14.1 97 0.3 CALM 0 0 0 0 1018.9 1018.4 0.0
16/07:30am 13.3 13.9 13.0 98 0.2 WSW 2 7 1 4 1018.4 - 0.0
16/07:00am 11.9 12.3 11.4 97 0.3 CALM 0 0 0 0 1017.9 1017.4 0.0
16/06:30am 11.2 11.4 10.7 97 0.3 CALM 0 0 0 0 1017.6 - 0.0
16/06:00am 11.5 11.8 11.0 97 0.3 CALM 0 0 0 0 1017.4 1016.9 0.0
16/05:30am 12.1 11.5 11.6 97 0.3 SSE 6 7 3 4 1017.2 - 0.0
16/05:00am 12.4 11.9 11.9 97 0.3 SSE 6 7 3 4 1016.9 1016.4 0.0
16/04:30am 12.2 11.0 11.7 97 0.3 S 9 11 5 6 1017.1 - 0.0
16/04:00am 12.8 11.8 12.3 97 0.3 S 9 13 5 7 1017.0 1016.6 0.0
16/03:30am 12.9 11.9 12.4 97 0.3 SSW 9 13 5 7 1016.8 - 0.0
16/03:00am 13.5 13.1 12.4 93 0.6 SW 6 7 3 4 1016.8 1016.3 0.0
16/02:30am 14.4 14.2 13.1 92 0.7 S 6 7 3 4 1016.9 - 0.0
16/02:00am 13.9 13.2 13.1 95 0.4 SSW 9 11 5 6 1017.2 1016.8 0.0
16/01:30am 14.0 14.6 13.2 95 0.4 S 2 7 1 4 1017.2 - 0.0
16/01:00am 14.3 13.8 12.5 89 1.0 S 7 9 4 5 1017.5 1017.0 0.0
16/12:30am 14.6 13.7 12.6 88 1.1 SSE 9 13 5 7 1017.5 - 0.0
16/12:00am 13.9 13.0 11.4 85 1.3 SSE 7 7 4 4 1017.4 1016.9 0.0
 
Date/Time
EST
Temp
°C
App
Temp
°C
Dew
Point
Rel
Hum
%
Delta-T
°C
Wind Press
QNH
hPa
Press
MSL
hPa
Rain
since 9 am
mm
Dir
 
Spd
km/h
Gust
km/h
Spd
kts
Gust
kts
15/11:30pm 14.6 13.5 11.9 84 1.5 SSE 9 9 5 5 1017.4 - 0.0
15/11:00pm 15.3 14.2 12.1 81 1.8 SSE 9 11 5 6 1017.6 1017.1 0.0
15/10:30pm 15.2 14.1 12.0 81 1.8 SE 9 11 5 6 1017.7 - 0.0
15/10:00pm 15.9 14.0 11.9 77 2.2 SE 13 17 7 9 1017.5 1017.0 0.0
15/09:30pm 16.9 15.3 11.6 71 2.9 SSE 11 15 6 8 1017.4 - 0.0
15/09:00pm 17.1 14.8 11.6 70 3.0 SSE 15 19 8 10 1017.2 1016.8 0.0
15/08:30pm 17.0 15.0 11.5 70 3.0 S 13 15 7 8 1017.4 - 0.0
15/08:00pm 17.7 15.8 11.7 68 3.3 S 13 17 7 9 1017.0 1016.6 0.0
15/07:30pm 18.2 16.4 12.0 67 3.4 S 13 15 7 8 1016.8 - 0.0
15/07:00pm 18.3 16.6 12.5 69 3.3 S 13 15 7 8 1016.8 1016.3 0.0
15/06:30pm 18.1 16.3 12.1 68 3.3 S 13 15 7 8 1016.6 - 0.0
15/06:00pm 19.1 17.8 12.4 65 3.8 S 11 13 6 7 1016.4 1015.9 0.0
15/05:30pm 20.5 18.7 12.0 58 4.8 S 13 15 7 8 1016.0 - 0.0
15/05:00pm 21.2 18.7 11.2 53 5.6 S 15 19 8 10 1015.7 1015.2 0.0
15/04:30pm 22.2 19.8 11.3 50 6.1 SSE 15 20 8 11 1015.6 - 0.0
15/04:00pm 22.3 19.4 11.1 49 6.3 SSE 17 20 9 11 1015.6 1015.1 0.0
15/03:30pm 23.0 20.6 11.4 48 6.5 SSE 15 22 8 12 1015.7 - 0.0
15/03:00pm 23.5 21.4 12.5 50 6.3 SSE 15 20 8 11 1016.0 1015.5 0.0
15/02:30pm 22.6 20.1 11.0 48 6.5 SSE 15 20 8 11 1016.2 - 0.0
15/02:00pm 22.6 20.6 12.8 54 5.6 SSE 15 19 8 10 1016.2 1015.7 0.0
15/01:30pm 23.0 20.8 12.0 50 6.3 SSE 15 19 8 10 1016.2 - 0.0
15/01:00pm 23.1 21.0 14.7 59 5.0 S 19 22 10 12 1016.6 1016.1 0.0
15/12:30pm 20.4 19.1 13.6 65 3.9 SE 13 15 7 8 1017.1 - 0.0
15/12:00pm 20.4 19.8 13.6 65 3.9 ESE 9 11 5 6 1017.7 1017.2 0.0
15/11:30am 19.2 18.3 13.6 70 3.2 ENE 11 17 6 9 1018.2 - 0.0
15/11:00am 20.3 19.0 11.2 56 5.0 E 9 19 5 10 1018.5 1018.0 0.0
15/10:30am 20.3 17.1 11.2 56 5.0 ENE 19 24 10 13 1018.5 - 0.0
15/10:00am 20.6 16.8 12.3 59 4.7 E 24 32 13 17 1018.5 1018.0 0.0
15/09:30am 18.7 14.3 11.8 64 3.8 E 26 37 14 20 1018.7 - 0.0
15/09:00am 19.1 15.6 13.3 69 3.3 E 24 35 13 19 1018.8 1018.3 0.0
15/08:30am 17.1 16.6 13.8 81 1.9 E 9 22 5 12 1018.8 - 0.0
15/08:00am 15.1 15.4 14.6 97 0.3 SSE 6 9 3 5 1018.6 1018.1 0.0
15/07:30am 14.0 13.8 13.5 97 0.3 S 7 11 4 6 1018.3 - 0.0
15/07:00am 12.9 11.9 12.4 97 0.3 SSE 9 11 5 6 1017.9 1017.4 0.0
15/06:30am 12.2 11.4 11.7 97 0.3 SSE 7 9 4 5 1017.7 - 0.0
15/06:00am 12.7 12.1 11.8 94 0.5 ESE 6 9 3 5 1017.5 1017.0 0.0
15/05:30am 13.4 12.9 12.8 96 0.3 SSE 7 9 4 5 1017.4 - 0.0
15/05:00am 13.4 12.5 12.6 95 0.4 S 9 11 5 6 1017.1 1016.7 0.0
15/04:30am 13.1 12.2 11.3 89 1.0 SSE 7 11 4 6 1016.6 - 0.0
15/04:00am 13.8 12.4 11.0 83 1.5 ESE 9 13 5 7 1016.3 1015.8 0.0
15/03:30am 13.8 12.5 11.1 84 1.4 ESE 9 15 5 8 1016.5 - 0.0
15/03:00am 13.9 13.4 12.6 92 0.7 SE 7 11 4 6 1016.6 1016.1 0.0
15/02:30am 13.3 12.4 12.5 95 0.4 SE 9 13 5 7 1016.7 - 0.0
15/02:00am 12.5 11.3 11.6 94 0.5 SSE 9 11 5 6 1017.0 1016.6 0.0
15/01:30am 12.8 11.6 11.5 92 0.7 SSE 9 9 5 5 1017.1 - 0.0
15/01:00am 13.1 11.5 11.5 90 0.9 SSE 11 13 6 7 1017.2 1016.8 0.0
15/12:30am 13.5 12.2 11.4 87 1.1 SSE 9 13 5 7 1017.2 - 0.0
15/12:00am 13.6 12.2 10.9 84 1.4 SSE 9 11 5 6 1017.0 1016.6 0.0
 
Date/Time
EST
Temp
°C
App
Temp
°C
Dew
Point
Rel
Hum
%
Delta-T
°C
Wind Press
QNH
hPa
Press
MSL
hPa
Rain
since 9 am
mm
Dir
 
Spd
km/h
Gust
km/h
Spd
kts
Gust
kts
14/11:30pm 14.3 13.0 11.3 82 1.6 SSE 9 11 5 6 1016.9 - 0.0
14/11:00pm 14.6 12.8 11.0 79 1.9 SSE 11 13 6 7 1016.8 1016.3 0.0
14/10:30pm 15.1 13.0 11.3 78 2.1 SSE 13 15 7 8 1017.0 - 0.0
14/10:00pm 15.5 13.4 11.3 76 2.3 SSE 13 17 7 9 1017.1 1016.7 0.0
14/09:30pm 16.1 13.7 11.5 74 2.5 SSE 15 17 8 9 1017.0 - 0.0
14/09:00pm 17.0 14.6 11.3 69 3.1 SSE 15 19 8 10 1017.0 1016.6 0.0
14/08:30pm 17.6 15.1 11.2 66 3.5 SSE 15 19 8 10 1016.8 - 0.0
14/08:00pm 18.6 15.4 11.2 62 4.1 SSE 19 24 10 13 1016.5 1016.0 0.0
14/07:30pm 19.4 16.0 11.2 59 4.5 SSE 20 28 11 15 1016.4 - 0.0
14/07:00pm 20.0 16.5 11.0 56 5.0 SSE 20 28 11 15 1016.0 1015.5 0.0
14/06:30pm 20.2 17.3 11.1 56 5.0 S 17 20 9 11 1015.7 - 0.0
14/06:00pm 21.0 18.0 10.8 52 5.6 S 17 22 9 12 1015.5 1015.0 0.0
14/05:30pm 22.5 19.0 10.9 48 6.5 S 20 28 11 15 1015.0 - 0.0
14/05:00pm 23.6 20.2 10.6 44 7.2 S 19 26 10 14 1014.7 1014.2 0.0
14/04:30pm 24.2 20.7 10.1 41 7.8 S 19 24 10 13 1014.5 - 0.0
14/04:00pm 24.5 20.9 10.4 41 7.9 S 20 26 11 14 1014.5 1014.0 0.0
14/03:30pm 25.0 22.4 11.9 44 7.5 SSE 17 26 9 14 1014.4 - 0.0
14/03:00pm 24.2 21.4 11.5 45 7.2 S 17 24 9 13 1014.5 1014.0 0.0
14/02:30pm 24.7 22.7 11.6 44 7.5 S 13 20 7 11 1014.4 - 0.0
14/02:00pm 24.7 24.2 12.6 47 7.0 SE 7 15 4 8 1014.4 1013.9 0.0
14/01:30pm 24.9 22.2 11.8 44 7.5 S 17 20 9 11 1014.5 - 0.0
14/01:00pm 24.4 23.6 13.0 49 6.6 E 9 15 5 8 1015.0 1014.5 0.0
14/12:30pm 23.8 23.2 13.4 52 6.1 SSE 9 15 5 8 1015.3 - 0.0
14/12:00pm 23.8 22.7 11.8 47 6.8 ENE 9 15 5 8 1015.6 1015.1 0.0
14/11:30am 23.6 23.3 13.2 52 6.1 S 7 11 4 6 1016.1 - 0.0
14/11:00am 23.7 23.0 13.3 52 6.1 E 9 17 5 9 1016.6 1016.1 0.0
14/10:30am 22.3 19.9 12.8 55 5.5 E 17 22 9 12 1016.8 - 0.0
14/10:00am 22.3 19.2 12.3 53 5.7 E 20 28 11 15 1016.9 1016.4 0.0
14/09:30am 21.5 17.8 12.6 57 5.1 E 24 32 13 17 1016.8 - 0.0
14/09:00am 20.6 17.7 12.8 61 4.4 E 20 30 11 16 1016.9 1016.4 0.0
14/08:30am 18.5 17.3 14.0 75 2.6 ESE 13 19 7 10 1016.8 - 0.0
14/08:00am 16.7 16.7 15.1 90 0.9 SE 9 13 5 7 1016.7 1016.2 0.0
14/07:30am 14.7 13.6 14.2 97 0.3 SE 13 15 7 8 1016.4 - 0.0
14/07:00am 13.1 12.2 12.6 97 0.3 SSE 9 9 5 5 1016.1 1015.6 0.0
14/06:30am 12.3 11.2 11.8 97 0.3 SSE 9 13 5 7 1015.8 - 0.0
14/06:00am 12.5 11.0 12.0 97 0.3 SSE 11 13 6 7 1015.6 1015.1 0.0
14/05:30am 12.6 11.2 12.1 97 0.3 SSE 11 13 6 7 1015.5 - 0.0
14/05:00am 12.9 11.6 12.4 97 0.3 SSE 11 13 6 7 1015.2 1014.7 0.0
14/04:30am 13.0 11.7 12.5 97 0.3 SSE 11 13 6 7 1015.0 - 0.0
14/04:00am 13.2 11.6 12.7 97 0.3 SSE 13 17 7 9 1014.8 1014.3 0.0
14/03:30am 13.4 11.8 12.9 97 0.3 SSE 13 17 7 9 1014.7 - 0.0
14/03:00am 13.7 12.2 13.2 97 0.3 SSE 13 17 7 9 1014.6 1014.1 0.0
14/02:30am 13.8 12.4 13.3 97 0.3 SSE 13 17 7 9 1014.8 - 0.0
14/02:00am 14.1 12.8 13.6 97 0.3 SSE 13 17 7 9 1015.1 1014.6 0.0
14/01:30am 14.2 12.9 13.7 97 0.3 SSE 13 17 7 9 1015.2 - 0.0
14/01:00am 14.7 13.1 13.9 95 0.5 SSE 15 17 8 9 1015.2 1014.7 0.0
14/12:30am 15.1 13.5 14.0 93 0.6 SSE 15 17 8 9 1015.3 - 0.0
14/12:00am 15.0 13.7 13.7 92 0.7 SSE 13 15 7 8 1015.5 1015.0 0.0
 
Date/Time
EST
Temp
°C
App
Temp
°C
Dew
Point
Rel
Hum
%
Delta-T
°C
Wind Press
QNH
hPa
Press
MSL
hPa
Rain
since 9 am
mm
Dir
 
Spd
km/h
Gust
km/h
Spd
kts
Gust
kts
13/11:30pm 15.2 14.7 13.9 92 0.7 SSE 9 13 5 7 1015.6 - 0.0
13/11:00pm 15.7 14.9 13.9 89 1.0 SSE 11 13 6 7 1015.7 1015.2 0.0
13/10:30pm 15.9 15.0 13.7 87 1.2 SSE 11 15 6 8 1015.9 - 0.0
13/10:00pm 15.9 15.0 13.6 86 1.3 S 11 13 6 7 1016.0 1015.5 0.0
13/09:30pm 16.8 15.8 13.5 81 1.9 SSE 11 15 6 8 1016.2 - 0.0
13/09:00pm 17.2 15.7 13.1 77 2.3 SSE 13 15 7 8 1016.1 1015.6 0.0
13/08:30pm 18.0 16.4 12.9 72 2.9 SSE 13 15 7 8 1015.9 - 0.0
13/08:00pm 18.3 16.7 12.7 70 3.2 S 13 17 7 9 1015.6 1015.1 0.0
13/07:30pm 18.9 16.8 12.4 66 3.7 S 15 19 8 10 1015.2 - 0.0
13/07:00pm 20.4 17.8 11.9 58 4.8 S 17 24 9 13 1014.7 1014.2 0.0
13/06:30pm 20.7 18.1 11.9 57 4.9 S 17 20 9 11 1014.4 - 0.0
13/06:00pm 21.7 18.8 11.1 51 5.9 S 17 19 9 10 1014.0 1013.5 0.0
13/05:30pm 23.1 19.6 10.2 44 7.1 S 19 22 10 12 1013.6 - 0.0

Other Formats:

Comma delimited format used in spreadsheet applications
http://www.bom.gov.au/fwo/IDN60801/IDN60801.95718.axf

JavaScript Object Notation format (JSON) in row-major order
http://www.bom.gov.au/fwo/IDN60801/IDN60801.95718.json